Time;durP1;ratioP1;P1;durP2;ratioP2;P2;SDS_P1;SDS_P2;PMS_P1;PMS_P2;Temp;Humidity;BMP_temperature;BMP_pressure;BME280_temperature;BME280_humidity;BME280_pressure;Samples;Min_cycle;Max_cycle;Signal;HPM_P1;HPM_P2
2023/09/24 00:00:15;;;;;;;10.90;2.63;;;;;;;;;;5057280;28;20047;-54
2023/09/24 00:02:43;;;;;;;9.23;3.20;;;;;;;;;;5065318;28;20055;-50
2023/09/24 00:05:13;;;;;;;9.73;2.80;;;;;;;;;;5055897;28;20483;-52
2023/09/24 00:07:41;;;;;;;12.40;2.95;;;;;;;;;;5069109;28;20080;-54
2023/09/24 00:10:09;;;;;;;8.27;2.33;;;;;;;;;;5057173;28;20040;-49
2023/09/24 00:12:38;;;;;;;11.07;2.72;;;;;;;;;;5059423;28;20551;-54
2023/09/24 00:15:08;;;;;;;10.32;2.72;;;;;;;;;;5057601;28;20093;-56
2023/09/24 00:17:36;;;;;;;11.97;3.37;;;;;;;;;;5075977;28;20043;-52
2023/09/24 00:20:05;;;;;;;8.48;2.50;;;;;;;;;;5061350;28;20833;-52
2023/09/24 00:22:34;;;;;;;9.32;2.40;;;;;;;;;;5062093;28;20040;-55
2023/09/24 00:25:02;;;;;;;10.52;3.60;;;;;;;;;;5055603;28;20040;-53
2023/09/24 00:27:30;;;;;;;16.83;3.03;;;;;;;;;;5064776;28;20047;-53
2023/09/24 00:29:58;;;;;;;11.97;3.30;;;;;;;;;;5054888;28;20043;-51
2023/09/24 00:32:26;;;;;;;13.10;3.05;;;;;;;;;;5066282;28;20044;-49
2023/09/24 00:34:56;;;;;;;11.63;2.33;;;;;;;;;;5057249;28;20039;-50
2023/09/24 00:37:24;;;;;;;10.18;2.72;;;;;;;;;;5063781;28;20048;-45
2023/09/24 00:39:53;;;;;;;12.90;3.03;;;;;;;;;;5058438;28;20048;-49
2023/09/24 00:42:24;;;;;;;12.20;2.33;;;;;;;;;;5062265;28;20041;-52
2023/09/24 00:44:52;;;;;;;12.75;2.88;;;;;;;;;;5062790;28;20482;-48
2023/09/24 00:47:20;;;;;;;11.93;2.63;;;;;;;;;;5055420;28;20088;-52
2023/09/24 00:49:48;;;;;;;11.27;2.55;;;;;;;;;;5058156;28;20419;-51
2023/09/24 00:52:16;;;;;;;12.07;2.83;;;;;;;;;;5053688;28;20051;-50
2023/09/24 00:54:44;;;;;;;11.60;2.50;;;;;;;;;;5064807;28;20040;-52
2023/09/24 00:57:14;;;;;;;12.10;3.10;;;;;;;;;;5054522;28;20789;-52
2023/09/24 00:59:46;;;;;;;20.48;3.80;;;;;;;;;;5067481;28;20047;-52
2023/09/24 01:02:14;;;;;;;12.38;3.20;;;;;;;;;;5052493;28;20032;-52
2023/09/24 01:04:42;;;;;;;14.75;3.03;;;;;;;;;;5059402;28;20137;-50
2023/09/24 01:07:14;;;;;;;13.07;3.27;;;;;;;;;;5046066;28;20057;-52
2023/09/24 01:09:44;;;;;;;13.02;2.95;;;;;;;;;;5063863;28;20047;-49
2023/09/24 01:12:23;;;;;;;12.45;2.95;;;;;;;;;;5066117;28;20060;-51
2023/09/24 01:14:53;;;;;;;11.05;3.55;;;;;;;;;;5066060;28;20043;-48
2023/09/24 01:17:23;;;;;;;18.83;3.45;;;;;;;;;;5026562;28;20522;-51
2023/09/24 01:19:54;;;;;;;14.70;3.77;;;;;;;;;;5046138;28;20068;-53
2023/09/24 01:22:24;;;;;;;15.60;3.63;;;;;;;;;;5055421;28;20044;-51
2023/09/24 01:24:55;;;;;;;10.95;3.08;;;;;;;;;;5063230;28;20032;-51
2023/09/24 01:27:24;;;;;;;11.52;3.42;;;;;;;;;;5060679;28;20032;-54
2023/09/24 01:29:56;;;;;;;18.38;3.20;;;;;;;;;;5063122;28;20697;-54
2023/09/24 01:32:24;;;;;;;9.70;2.60;;;;;;;;;;5059252;28;20068;-53
2023/09/24 01:34:52;;;;;;;17.35;3.00;;;;;;;;;;5053716;28;20039;-52
2023/09/24 01:37:21;;;;;;;12.80;2.95;;;;;;;;;;5057052;28;20037;-55
2023/09/24 01:39:51;;;;;;;11.75;2.80;;;;;;;;;;5057331;28;20036;-51
2023/09/24 01:42:20;;;;;;;17.30;2.80;;;;;;;;;;5065508;28;20039;-50
2023/09/24 01:44:50;;;;;;;12.03;3.73;;;;;;;;;;5059098;28;20039;-49
2023/09/24 01:47:18;;;;;;;16.15;3.65;;;;;;;;;;5061823;28;20093;-49
2023/09/24 01:49:46;;;;;;;14.80;2.92;;;;;;;;;;5055978;28;20039;-48
2023/09/24 01:52:15;;;;;;;14.98;3.05;;;;;;;;;;5071809;28;20051;-49
2023/09/24 01:54:48;;;;;;;13.00;3.58;;;;;;;;;;5058504;28;20089;-49
2023/09/24 01:57:20;;;;;;;16.37;3.50;;;;;;;;;;5063946;28;20055;-51
2023/09/24 01:59:48;;;;;;;16.83;3.40;;;;;;;;;;5061705;28;20036;-52
2023/09/24 02:02:16;;;;;;;14.57;3.45;;;;;;;;;;5060948;28;20381;-53
2023/09/24 02:04:44;;;;;;;13.30;3.05;;;;;;;;;;5056645;28;20048;-54
2023/09/24 02:07:12;;;;;;;16.60;3.22;;;;;;;;;;5062179;28;20125;-53
2023/09/24 02:09:40;;;;;;;12.27;2.73;;;;;;;;;;5057759;28;20036;-49
2023/09/24 02:12:35;;;;;;;11.18;2.53;;;;;;;;;;5070396;28;20502;-54
2023/09/24 02:15:11;;;;;;;12.80;2.88;;;;;;;;;;5065805;28;20040;-50
2023/09/24 02:17:41;;;;;;;10.70;2.67;;;;;;;;;;5054685;28;20819;-50
2023/09/24 02:20:32;;;;;;;18.85;3.45;;;;;;;;;;5064504;28;20497;-51
2023/09/24 02:23:25;;;;;;;12.43;2.97;;;;;;;;;;5071460;28;20055;-51
2023/09/24 02:25:53;;;;;;;12.43;2.75;;;;;;;;;;5062476;28;20046;-51
2023/09/24 02:28:24;;;;;;;14.50;3.05;;;;;;;;;;5062866;28;20047;-53
2023/09/24 02:30:53;;;;;;;14.15;3.05;;;;;;;;;;5056782;28;20047;-49
2023/09/24 02:33:26;;;;;;;10.77;2.90;;;;;;;;;;5058229;28;20125;-49
2023/09/24 02:35:58;;;;;;;15.93;2.57;;;;;;;;;;5073462;28;20533;-49
2023/09/24 02:38:28;;;;;;;18.40;3.03;;;;;;;;;;5068643;28;20044;-49
2023/09/24 02:40:56;;;;;;;15.80;2.92;;;;;;;;;;5048954;28;21068;-49
2023/09/24 02:43:26;;;;;;;10.63;2.47;;;;;;;;;;5047892;28;20794;-52
2023/09/24 02:45:56;;;;;;;16.67;3.00;;;;;;;;;;5054472;28;20059;-50
2023/09/24 02:48:24;;;;;;;10.63;2.20;;;;;;;;;;5061566;28;20082;-48
2023/09/24 02:50:52;;;;;;;12.27;2.20;;;;;;;;;;5054113;28;20036;-49
2023/09/24 02:53:41;;;;;;;15.05;3.53;;;;;;;;;;5067252;28;20171;-48
2023/09/24 02:56:30;;;;;;;11.43;2.75;;;;;;;;;;5065431;28;20034;-47
2023/09/24 02:59:12;;;;;;;12.65;2.47;;;;;;;;;;5060078;28;20546;-49
2023/09/24 03:01:46;;;;;;;15.10;2.97;;;;;;;;;;5090466;27;20517;-53
2023/09/24 03:04:40;;;;;;;12.85;2.40;;;;;;;;;;5052564;28;20072;-53
2023/09/24 03:07:28;;;;;;;13.60;2.80;;;;;;;;;;5057326;28;20700;-49
2023/09/24 03:10:21;;;;;;;13.85;2.80;;;;;;;;;;5062063;28;20055;-48
2023/09/24 03:13:14;;;;;;;11.02;2.45;;;;;;;;;;5066149;28;20153;-48
2023/09/24 03:16:03;;;;;;;10.60;2.50;;;;;;;;;;5065515;28;20039;-50
2023/09/24 03:18:32;;;;;;;13.43;3.15;;;;;;;;;;5059173;28;20043;-50
2023/09/24 03:21:00;;;;;;;12.32;2.33;;;;;;;;;;5065782;28;20184;-53
2023/09/24 03:23:27;;;;;;;12.77;2.45;;;;;;;;;;5070095;28;20032;-48
2023/09/24 03:25:56;;;;;;;13.95;2.95;;;;;;;;;;5061378;28;20456;-50
2023/09/24 03:28:24;;;;;;;12.57;2.30;;;;;;;;;;5079635;27;20927;-49
2023/09/24 03:30:52;;;;;;;12.55;2.35;;;;;;;;;;5067787;28;20040;-48
2023/09/24 03:33:44;;;;;;;14.23;3.53;;;;;;;;;;5060854;28;20395;-52
2023/09/24 03:36:15;;;;;;;12.52;2.90;;;;;;;;;;5055487;28;20357;-52
2023/09/24 03:38:45;;;;;;;13.20;2.70;;;;;;;;;;5065105;28;20036;-50
2023/09/24 03:41:12;;;;;;;13.40;2.40;;;;;;;;;;5050755;28;20400;-49
2023/09/24 03:43:42;;;;;;;13.70;2.65;;;;;;;;;;5036181;28;20044;-51
2023/09/24 03:46:11;;;;;;;15.02;2.95;;;;;;;;;;5064689;28;20090;-48
2023/09/24 03:48:43;;;;;;;13.77;2.50;;;;;;;;;;5057820;28;20036;-51
2023/09/24 03:51:14;;;;;;;13.20;2.58;;;;;;;;;;5058482;28;20076;-54
2023/09/24 03:53:41;;;;;;;14.63;2.93;;;;;;;;;;5056789;28;20059;-52
2023/09/24 03:56:14;;;;;;;18.83;3.55;;;;;;;;;;5060798;28;20131;-53
2023/09/24 03:59:07;;;;;;;12.38;2.75;;;;;;;;;;5053356;28;20036;-49
2023/09/24 04:01:54;;;;;;;21.20;3.13;;;;;;;;;;5065510;28;20040;-52
2023/09/24 04:04:24;;;;;;;15.32;2.38;;;;;;;;;;5051225;28;20044;-50
2023/09/24 04:06:57;;;;;;;16.87;3.27;;;;;;;;;;5089981;27;21170;-52
2023/09/24 04:09:31;;;;;;;15.60;2.28;;;;;;;;;;5066113;28;20036;-48
2023/09/24 04:11:58;;;;;;;17.95;2.92;;;;;;;;;;5057371;28;20135;-50
2023/09/24 04:14:26;;;;;;;12.52;2.28;;;;;;;;;;5069392;28;20445;-49
2023/09/24 04:17:19;;;;;;;11.13;2.55;;;;;;;;;;5055674;28;20048;-49
2023/09/24 04:19:48;;;;;;;15.80;3.43;;;;;;;;;;5041285;28;20452;-49
2023/09/24 04:22:18;;;;;;;10.63;2.28;;;;;;;;;;5084259;27;20040;-53
2023/09/24 04:24:46;;;;;;;12.18;2.50;;;;;;;;;;5048262;28;20119;-52
2023/09/24 04:27:35;;;;;;;14.68;2.28;;;;;;;;;;5056894;28;20032;-51
2023/09/24 04:30:24;;;;;;;15.70;3.60;;;;;;;;;;5053511;28;20039;-52
2023/09/24 04:32:54;;;;;;;15.67;2.77;;;;;;;;;;5058852;28;20564;-53
2023/09/24 04:35:22;;;;;;;14.80;3.00;;;;;;;;;;5061752;28;20178;-48
2023/09/24 04:37:52;;;;;;;16.35;3.03;;;;;;;;;;5045724;28;20482;-52
2023/09/24 04:40:20;;;;;;;10.75;2.20;;;;;;;;;;5062767;28;20047;-56
2023/09/24 04:42:50;;;;;;;13.27;2.90;;;;;;;;;;5052278;28;20060;-51
2023/09/24 04:45:40;;;;;;;15.00;3.13;;;;;;;;;;5053125;28;20570;-53
2023/09/24 04:48:28;;;;;;;18.02;2.85;;;;;;;;;;5063287;28;20104;-55
2023/09/24 04:51:16;;;;;;;22.00;3.05;;;;;;;;;;5068130;28;20055;-51
2023/09/24 04:54:06;;;;;;;11.00;2.65;;;;;;;;;;5055940;28;20508;-51
2023/09/24 04:56:35;;;;;;;17.05;3.03;;;;;;;;;;5048754;28;20076;-52
2023/09/24 04:59:03;;;;;;;17.30;3.00;;;;;;;;;;5058274;28;20117;-52
2023/09/24 05:01:31;;;;;;;15.88;2.50;;;;;;;;;;5049945;28;20039;-52
2023/09/24 05:04:03;;;;;;;19.13;2.47;;;;;;;;;;5059399;28;20148;-52
2023/09/24 05:06:34;;;;;;;17.08;2.65;;;;;;;;;;5057200;28;21242;-54
2023/09/24 05:09:03;;;;;;;17.73;3.55;;;;;;;;;;5056548;28;20082;-49
2023/09/24 05:11:32;;;;;;;18.23;2.93;;;;;;;;;;5048294;28;20455;-52
2023/09/24 05:14:00;;;;;;;18.23;3.03;;;;;;;;;;5058945;28;20048;-51
2023/09/24 05:16:47;;;;;;;16.17;2.72;;;;;;;;;;5057745;28;20047;-50
2023/09/24 05:19:15;;;;;;;15.68;2.95;;;;;;;;;;5046183;28;20036;-54
2023/09/24 05:22:03;;;;;;;13.25;3.35;;;;;;;;;;5063383;28;20169;-54
2023/09/24 05:24:51;;;;;;;12.27;2.83;;;;;;;;;;5059090;28;20051;-52
2023/09/24 05:27:41;;;;;;;18.15;3.25;;;;;;;;;;5055866;28;20071;-52
2023/09/24 05:30:32;;;;;;;10.35;2.60;;;;;;;;;;5053706;28;20047;-51
2023/09/24 05:33:02;;;;;;;17.27;2.85;;;;;;;;;;5051464;28;20514;-50
2023/09/24 05:35:51;;;;;;;11.63;2.65;;;;;;;;;;5068055;28;20832;-49
2023/09/24 05:38:19;;;;;;;14.80;2.77;;;;;;;;;;5047413;28;20046;-50
2023/09/24 05:40:49;;;;;;;14.25;3.40;;;;;;;;;;5049956;28;20040;-52
2023/09/24 05:43:18;;;;;;;25.77;3.50;;;;;;;;;;5069668;28;20047;-53
2023/09/24 05:45:46;;;;;;;15.18;2.90;;;;;;;;;;5042594;28;20036;-50
2023/09/24 05:48:15;;;;;;;14.77;3.20;;;;;;;;;;5084747;27;20048;-52
2023/09/24 05:50:47;;;;;;;15.77;3.60;;;;;;;;;;5059286;28;20115;-51
2023/09/24 05:53:35;;;;;;;16.42;3.10;;;;;;;;;;5049406;28;20055;-51
2023/09/24 05:56:27;;;;;;;15.25;2.78;;;;;;;;;;5062842;28;20040;-52
2023/09/24 05:58:57;;;;;;;15.82;3.63;;;;;;;;;;5057047;28;20048;-52
2023/09/24 06:01:24;;;;;;;15.50;2.55;;;;;;;;;;5044468;28;20046;-48
2023/09/24 06:04:06;;;;;;;22.90;3.20;;;;;;;;;;5055391;28;20043;-48
2023/09/24 06:06:53;;;;;;;16.30;3.17;;;;;;;;;;5077330;27;20082;-55
2023/09/24 06:09:47;;;;;;;10.02;2.13;;;;;;;;;;5048297;28;20043;-52
2023/09/24 06:12:35;;;;;;;15.23;3.22;;;;;;;;;;5062414;28;20559;-54
2023/09/24 06:15:10;;;;;;;11.48;2.78;;;;;;;;;;5054592;28;20042;-49
2023/09/24 06:17:39;;;;;;;15.67;2.60;;;;;;;;;;5054258;28;20051;-51
2023/09/24 06:20:28;;;;;;;9.65;2.22;;;;;;;;;;5053698;28;20491;-50
2023/09/24 06:22:57;;;;;;;10.45;2.08;;;;;;;;;;5053076;28;20043;-54
2023/09/24 06:25:26;;;;;;;11.85;1.80;;;;;;;;;;5053325;28;20043;-50
2023/09/24 06:27:54;;;;;;;8.82;2.08;;;;;;;;;;5059006;28;20047;-53
2023/09/24 06:30:44;;;;;;;15.70;1.93;;;;;;;;;;5050466;28;20040;-52
2023/09/24 06:33:32;;;;;;;9.75;1.90;;;;;;;;;;5056143;28;20063;-53
2023/09/24 06:36:21;;;;;;;13.57;2.20;;;;;;;;;;5053589;28;20060;-52
2023/09/24 06:39:13;;;;;;;12.02;1.70;;;;;;;;;;5049240;28;20914;-50
2023/09/24 06:41:42;;;;;;;13.35;2.38;;;;;;;;;;5060385;28;20043;-48
2023/09/24 06:44:11;;;;;;;13.23;2.00;;;;;;;;;;5048129;28;20494;-55
2023/09/24 06:46:41;;;;;;;15.77;3.05;;;;;;;;;;5063241;28;20160;-51
2023/09/24 06:49:29;;;;;;;14.27;1.73;;;;;;;;;;5034634;28;20043;-53
2023/09/24 06:52:17;;;;;;;14.48;3.10;;;;;;;;;;5058449;28;20044;-52
2023/09/24 06:55:08;;;;;;;8.98;2.05;;;;;;;;;;5054703;28;20032;-53
2023/09/24 06:57:37;;;;;;;8.67;2.70;;;;;;;;;;5068825;28;20192;-49
2023/09/24 07:00:05;;;;;;;12.75;2.13;;;;;;;;;;5064438;28;20516;-50
2023/09/24 07:02:34;;;;;;;6.78;1.40;;;;;;;;;;5059098;28;20071;-53
2023/09/24 07:05:22;;;;;;;11.52;1.83;;;;;;;;;;5060979;28;20524;-51
2023/09/24 07:08:11;;;;;;;8.43;1.90;;;;;;;;;;5044524;28;20047;-48
2023/09/24 07:11:14;;;;;;;12.07;2.37;;;;;;;;;;5055852;28;20094;-54
2023/09/24 07:14:04;;;;;;;7.15;1.50;;;;;;;;;;5057108;28;20168;-54
2023/09/24 07:16:59;;;;;;;8.48;1.73;;;;;;;;;;5063330;28;20043;-52
2023/09/24 07:19:48;;;;;;;12.73;1.75;;;;;;;;;;5045625;28;20036;-51
2023/09/24 07:22:35;;;;;;;9.80;1.83;;;;;;;;;;5058531;28;20051;-51
2023/09/24 07:25:23;;;;;;;8.53;1.60;;;;;;;;;;5063621;28;20566;-52
2023/09/24 07:27:51;;;;;;;8.38;1.40;;;;;;;;;;5053509;28;20043;-52
2023/09/24 07:30:19;;;;;;;7.18;1.48;;;;;;;;;;5054499;28;20045;-49
2023/09/24 07:32:47;;;;;;;6.70;1.10;;;;;;;;;;5054992;28;20040;-54
2023/09/24 07:35:17;;;;;;;10.00;1.27;;;;;;;;;;5057939;28;20406;-53
2023/09/24 07:37:45;;;;;;;8.43;1.10;;;;;;;;;;5042003;28;20402;-49
2023/09/24 07:40:14;;;;;;;4.80;1.15;;;;;;;;;;5065675;28;20040;-52
2023/09/24 07:43:02;;;;;;;8.15;1.42;;;;;;;;;;5059853;28;20051;-49
2023/09/24 07:45:30;;;;;;;10.88;1.63;;;;;;;;;;5058201;28;20040;-50
2023/09/24 07:48:18;;;;;;;7.93;1.20;;;;;;;;;;5057938;28;20096;-49
2023/09/24 07:51:07;;;;;;;9.40;1.13;;;;;;;;;;5047228;28;20097;-56
2023/09/24 07:53:55;;;;;;;4.90;0.93;;;;;;;;;;5058852;28;20064;-52
2023/09/24 07:56:45;;;;;;;9.05;1.35;;;;;;;;;;5055074;28;20120;-54
2023/09/24 07:59:33;;;;;;;6.88;1.70;;;;;;;;;;5058451;28;20047;-52
2023/09/24 08:02:02;;;;;;;9.27;1.92;;;;;;;;;;5055139;28;20093;-53
2023/09/24 08:04:29;;;;;;;8.67;1.87;;;;;;;;;;5050553;28;20119;-52
2023/09/24 08:09:57;;;;;;;4.85;1.33;;;;;;;;;;4861470;23;20050;-37
2023/09/24 08:12:26;;;;;;;9.02;1.92;;;;;;;;;;4957401;28;20134;-36
2023/09/24 08:14:54;;;;;;;7.05;1.40;;;;;;;;;;4954484;28;20050;-36
2023/09/24 08:17:21;;;;;;;12.17;2.90;;;;;;;;;;4956762;28;20461;-36
2023/09/24 08:19:51;;;;;;;11.30;1.80;;;;;;;;;;4946903;28;20669;-37
2023/09/24 08:22:19;;;;;;;9.85;1.45;;;;;;;;;;4966009;28;20093;-37
2023/09/24 08:24:49;;;;;;;8.48;1.65;;;;;;;;;;4944277;28;20840;-37
2023/09/24 08:27:38;;;;;;;10.50;1.60;;;;;;;;;;4965283;28;20103;-37
2023/09/24 08:30:24;;;;;;;6.27;1.63;;;;;;;;;;4949443;28;20393;-36
2023/09/24 08:32:54;;;;;;;8.98;1.92;;;;;;;;;;4961662;28;20045;-36
2023/09/24 08:35:23;;;;;;;7.22;1.20;;;;;;;;;;4954782;28;20057;-37
2023/09/24 08:37:50;;;;;;;10.30;2.45;;;;;;;;;;4959765;28;20030;-37
2023/09/24 08:40:22;;;;;;;11.48;2.17;;;;;;;;;;4686904;28;10000561;-36
2023/09/24 08:42:50;;;;;;;9.57;2.30;;;;;;;;;;4606303;28;10000568;-37
2023/09/24 08:45:19;;;;;;;9.73;1.90;;;;;;;;;;4952579;28;20302;-36
2023/09/24 08:48:09;;;;;;;7.65;2.17;;;;;;;;;;4963341;28;20504;-36
2023/09/24 08:50:57;;;;;;;11.25;2.40;;;;;;;;;;4958458;28;20141;-37
2023/09/24 08:53:46;;;;;;;9.77;2.40;;;;;;;;;;4951474;28;20061;-36
2023/09/24 08:56:35;;;;;;;11.70;2.20;;;;;;;;;;4942500;28;20415;-37
2023/09/24 08:59:03;;;;;;;10.30;2.07;;;;;;;;;;4962173;28;20351;-37
2023/09/24 09:01:32;;;;;;;11.13;2.22;;;;;;;;;;4944763;28;20058;-37
2023/09/24 09:03:59;;;;;;;10.32;2.65;;;;;;;;;;4958476;28;20125;-36
2023/09/24 09:06:47;;;;;;;8.95;2.35;;;;;;;;;;4950851;28;20506;-37
2023/09/24 09:09:36;;;;;;;7.68;2.20;;;;;;;;;;4952485;28;20058;-36
2023/09/24 09:12:45;;;;;;;8.87;1.63;;;;;;;;;;4965745;28;20057;-36
2023/09/24 09:15:17;;;;;;;9.98;2.08;;;;;;;;;;4963890;28;20630;-36
2023/09/24 09:17:45;;;;;;;8.63;2.10;;;;;;;;;;4948831;28;20057;-36
2023/09/24 09:20:14;;;;;;;10.70;2.33;;;;;;;;;;4965879;28;20101;-36
2023/09/24 09:22:46;;;;;;;11.45;2.30;;;;;;;;;;4954571;28;20117;-36
2023/09/24 09:34:21;;;;;;;8.85;2.00;;;;;;;;;;4952907;28;20246;-36
2023/09/24 09:36:50;;;;;;;10.73;1.83;;;;;;;;;;4609963;28;10000474;-36
2023/09/24 09:39:18;;;;;;;9.45;2.15;;;;;;;;;;4959727;28;20049;-37
2023/09/24 09:41:49;;;;;;;4.03;1.08;;;;;;;;;;4955151;28;20035;-36
2023/09/24 09:44:38;;;;;;;11.63;2.05;;;;;;;;;;4962196;28;20088;-36
2023/09/24 09:47:28;;;;;;;8.03;2.00;;;;;;;;;;4952712;28;20048;-36
2023/09/24 09:49:58;;;;;;;9.98;1.90;;;;;;;;;;4956928;28;20356;-36
2023/09/24 09:52:31;;;;;;;8.90;2.03;;;;;;;;;;4961688;28;20136;-36
2023/09/24 09:55:03;;;;;;;9.57;2.10;;;;;;;;;;4935770;28;20484;-37
2023/09/24 09:57:52;;;;;;;11.30;2.40;;;;;;;;;;4948968;28;20215;-36
2023/09/24 10:00:31;;;;;;;7.03;1.43;;;;;;;;;;4963823;28;20062;-38
2023/09/24 10:03:01;;;;;;;8.40;2.15;;;;;;;;;;4953951;28;20049;-36
2023/09/24 10:05:54;;;;;;;13.25;2.13;;;;;;;;;;4953793;28;20069;-37
2023/09/24 10:08:43;;;;;;;14.20;2.70;;;;;;;;;;4961650;28;20108;-36
2023/09/24 10:11:50;;;;;;;14.30;2.75;;;;;;;;;;4950823;28;20121;-36
2023/09/24 10:14:31;;;;;;;9.60;2.50;;;;;;;;;;4954009;28;20416;-36
2023/09/24 10:17:18;;;;;;;12.75;2.67;;;;;;;;;;4944775;28;20039;-37
2023/09/24 10:20:18;;;;;;;13.82;2.80;;;;;;;;;;4961093;28;20046;-36
2023/09/24 10:23:21;;;;;;;12.77;3.17;;;;;;;;;;4946030;28;20046;-37
2023/09/24 10:25:56;;;;;;;9.73;1.80;;;;;;;;;;4934333;28;20054;-36
2023/09/24 10:28:44;;;;;;;13.93;2.23;;;;;;;;;;4965311;28;20046;-38
2023/09/24 10:31:33;;;;;;;12.13;1.85;;;;;;;;;;4961448;28;20103;-36
2023/09/24 10:34:22;;;;;;;11.05;2.33;;;;;;;;;;4949432;28;20113;-36
2023/09/24 10:37:09;;;;;;;14.32;1.90;;;;;;;;;;4957677;28;20038;-36
2023/09/24 10:40:04;;;;;;;12.18;2.05;;;;;;;;;;4963301;28;20053;-36
2023/09/24 10:42:34;;;;;;;8.20;1.43;;;;;;;;;;4947513;28;20125;-36
2023/09/24 10:45:20;;;;;;;8.60;2.15;;;;;;;;;;4963410;28;20046;-36
2023/09/24 10:48:10;;;;;;;11.45;2.50;;;;;;;;;;4964307;28;20169;-36
2023/09/24 10:50:44;;;;;;;12.40;2.53;;;;;;;;;;4963776;28;20463;-36
2023/09/24 10:53:12;;;;;;;9.07;1.35;;;;;;;;;;4944233;28;20041;-36
2023/09/24 10:56:01;;;;;;;11.57;2.33;;;;;;;;;;4961519;28;20452;-36
2023/09/24 10:58:49;;;;;;;10.13;1.92;;;;;;;;;;4959498;28;20677;-36
2023/09/24 11:01:37;;;;;;;13.48;2.10;;;;;;;;;;4947415;28;20493;-36
2023/09/24 11:04:30;;;;;;;11.93;2.20;;;;;;;;;;4957205;28;20053;-36
2023/09/24 11:07:18;;;;;;;10.57;2.90;;;;;;;;;;4961326;28;20050;-36
2023/09/24 11:09:48;;;;;;;11.37;2.43;;;;;;;;;;4955674;28;20050;-35
2023/09/24 11:12:16;;;;;;;14.55;2.30;;;;;;;;;;4961290;28;20034;-38
2023/09/24 11:14:53;;;;;;;11.98;2.83;;;;;;;;;;4932689;28;20043;-36
2023/09/24 11:17:43;;;;;;;14.18;2.25;;;;;;;;;;4947653;28;20050;-36
2023/09/24 11:20:13;;;;;;;10.10;2.00;;;;;;;;;;4955035;28;20078;-36
2023/09/24 11:22:42;;;;;;;11.90;2.60;;;;;;;;;;4951529;28;20132;-35
2023/09/24 11:25:10;;;;;;;12.32;2.88;;;;;;;;;;4956678;28;20484;-37
2023/09/24 11:27:45;;;;;;;9.05;2.15;;;;;;;;;;4945181;28;21030;-36
2023/09/24 11:30:44;;;;;;;10.57;1.50;;;;;;;;;;4952107;28;20886;-37
2023/09/24 11:33:13;;;;;;;10.10;2.17;;;;;;;;;;4615508;28;9999604;-36
2023/09/24 11:35:43;;;;;;;14.65;2.33;;;;;;;;;;4959585;28;20672;-36
2023/09/24 11:38:11;;;;;;;9.65;2.35;;;;;;;;;;4958923;28;20046;-37
2023/09/24 11:41:07;;;;;;;11.18;1.55;;;;;;;;;;4952564;28;20046;-36
2023/09/24 11:43:56;;;;;;;9.30;2.07;;;;;;;;;;4957859;28;20050;-37
2023/09/24 11:46:28;;;;;;;9.18;1.92;;;;;;;;;;4967056;28;20039;-36
2023/09/24 11:48:58;;;;;;;7.45;1.88;;;;;;;;;;4951107;28;20047;-36
2023/09/24 11:51:46;;;;;;;9.05;2.03;;;;;;;;;;4944203;28;20172;-36
2023/09/24 11:54:15;;;;;;;6.60;2.47;;;;;;;;;;4958505;28;20038;-36
2023/09/24 11:56:43;;;;;;;11.20;2.50;;;;;;;;;;4955454;28;20134;-36
2023/09/24 11:59:11;;;;;;;13.27;3.13;;;;;;;;;;4967357;28;20120;-36
2023/09/24 12:01:58;;;;;;;14.38;2.42;;;;;;;;;;4957935;28;20046;-36
2023/09/24 12:04:49;;;;;;;7.47;2.08;;;;;;;;;;4952934;28;20592;-36
2023/09/24 12:07:18;;;;;;;11.68;2.13;;;;;;;;;;4963161;28;20042;-36
2023/09/24 12:09:45;;;;;;;13.77;2.70;;;;;;;;;;4939833;28;20113;-36
2023/09/24 12:12:13;;;;;;;9.85;2.08;;;;;;;;;;4967777;28;20514;-36
2023/09/24 12:14:59;;;;;;;18.73;4.60;;;;;;;;;;4960416;28;20127;-36
2023/09/24 12:17:47;;;;;;;14.43;2.35;;;;;;;;;;4946115;28;20050;-36
2023/09/24 12:20:37;;;;;;;10.68;2.40;;;;;;;;;;4965785;28;20181;-36
2023/09/24 12:23:33;;;;;;;9.13;2.20;;;;;;;;;;4967399;28;20116;-36
2023/09/24 12:26:20;;;;;;;11.48;2.58;;;;;;;;;;4948412;28;20067;-36
2023/09/24 12:29:09;;;;;;;11.65;2.33;;;;;;;;;;4947711;28;20167;-36
2023/09/24 12:31:37;;;;;;;10.10;2.35;;;;;;;;;;4968858;28;20141;-36
2023/09/24 12:34:05;;;;;;;11.90;1.83;;;;;;;;;;4939194;28;20141;-36
2023/09/24 12:36:33;;;;;;;8.17;2.03;;;;;;;;;;4958315;28;20142;-36
2023/09/24 12:39:02;;;;;;;9.95;2.20;;;;;;;;;;4945978;28;20053;-36
2023/09/24 12:41:30;;;;;;;7.50;2.10;;;;;;;;;;4960173;28;20048;-36
2023/09/24 12:43:58;;;;;;;10.57;2.70;;;;;;;;;;4955693;28;20049;-36
2023/09/24 12:46:25;;;;;;;11.55;1.90;;;;;;;;;;4968075;28;20038;-35
2023/09/24 12:48:53;;;;;;;11.17;2.57;;;;;;;;;;4953213;28;20039;-37
2023/09/24 12:51:21;;;;;;;7.20;1.90;;;;;;;;;;4953548;28;20046;-36
2023/09/24 12:53:49;;;;;;;12.90;2.30;;;;;;;;;;4946821;28;20045;-35
2023/09/24 12:56:18;;;;;;;10.75;2.42;;;;;;;;;;4964005;28;20047;-36
2023/09/24 12:58:46;;;;;;;10.57;2.00;;;;;;;;;;4955881;28;20038;-37
2023/09/24 13:01:34;;;;;;;10.93;2.10;;;;;;;;;;4949675;28;20046;-38
2023/09/24 13:04:22;;;;;;;12.38;2.47;;;;;;;;;;4944037;28;20113;-36
2023/09/24 13:07:10;;;;;;;11.93;2.58;;;;;;;;;;4959470;28;20516;-36
2023/09/24 13:09:40;;;;;;;9.85;1.88;;;;;;;;;;4957268;28;20058;-36
2023/09/24 13:12:11;;;;;;;10.23;2.33;;;;;;;;;;4961233;28;20099;-35
2023/09/24 13:14:38;;;;;;;10.23;2.50;;;;;;;;;;4955492;28;20126;-36
2023/09/24 13:17:27;;;;;;;11.13;2.33;;;;;;;;;;4935809;28;20061;-35
2023/09/24 13:19:54;;;;;;;11.05;2.45;;;;;;;;;;4959101;28;20065;-35
2023/09/24 13:22:22;;;;;;;12.60;2.05;;;;;;;;;;4957643;28;20491;-35
2023/09/24 13:24:52;;;;;;;8.52;1.92;;;;;;;;;;4954488;28;20054;-35
2023/09/24 13:27:42;;;;;;;10.07;2.13;;;;;;;;;;4958917;28;20455;-37
2023/09/24 13:30:33;;;;;;;11.25;2.40;;;;;;;;;;4951055;28;20075;-38
2023/09/24 13:33:21;;;;;;;11.75;2.33;;;;;;;;;;4951284;28;20195;-36
2023/09/24 13:36:11;;;;;;;11.37;2.70;;;;;;;;;;4608610;28;9999656;-35
2023/09/24 13:38:39;;;;;;;8.77;2.00;;;;;;;;;;4945974;28;20284;-37
2023/09/24 13:41:07;;;;;;;7.20;2.13;;;;;;;;;;4962814;28;20512;-37
2023/09/24 13:43:40;;;;;;;8.77;2.28;;;;;;;;;;4958904;28;20352;-37
2023/09/24 13:46:27;;;;;;;12.48;2.38;;;;;;;;;;4963892;28;20047;-37
2023/09/24 13:49:16;;;;;;;16.30;2.50;;;;;;;;;;4958727;28;20141;-37
2023/09/24 13:51:44;;;;;;;15.37;2.40;;;;;;;;;;4953533;28;20066;-37
2023/09/24 13:54:12;;;;;;;10.88;2.65;;;;;;;;;;4952848;28;20058;-38
2023/09/24 13:57:00;;;;;;;15.52;3.70;;;;;;;;;;4959229;28;20046;-37
2023/09/24 13:59:50;;;;;;;9.23;2.55;;;;;;;;;;4961871;28;20045;-37
2023/09/24 14:02:41;;;;;;;14.18;2.97;;;;;;;;;;4942366;28;20765;-37
2023/09/24 14:05:31;;;;;;;13.00;2.37;;;;;;;;;;4956634;28;20039;-39
2023/09/24 14:12:17;;;;;;;12.38;2.58;;;;;;;;;;4950662;28;20042;-37
2023/09/24 14:14:07;;;;;;;12.82;2.70;;;;;;;;;;4949854;28;20232;-37
2023/09/24 14:16:37;;;;;;;9.77;2.55;;;;;;;;;;4949581;28;20046;-37
2023/09/24 14:19:05;;;;;;;10.73;2.67;;;;;;;;;;4934923;28;20045;-37
2023/09/24 14:21:58;;;;;;;12.60;2.92;;;;;;;;;;4960930;28;20046;-37
2023/09/24 14:24:49;;;;;;;11.00;2.47;;;;;;;;;;4935831;28;20543;-37
2023/09/24 14:27:38;;;;;;;12.57;2.65;;;;;;;;;;4946941;28;20030;-37
2023/09/24 14:30:09;;;;;;;10.65;2.13;;;;;;;;;;4945895;28;20030;-37
2023/09/24 14:32:38;;;;;;;17.40;3.00;;;;;;;;;;4971270;28;20120;-37
2023/09/24 14:35:11;;;;;;;11.13;2.50;;;;;;;;;;4948185;28;20053;-37
2023/09/24 14:37:42;;;;;;;8.23;2.08;;;;;;;;;;4948027;28;20046;-36
2023/09/24 14:40:10;;;;;;;8.90;2.65;;;;;;;;;;4949781;28;20508;-37
2023/09/24 14:42:40;;;;;;;9.65;1.80;;;;;;;;;;4929621;28;20035;-37
2023/09/24 14:45:29;;;;;;;10.77;2.70;;;;;;;;;;4960639;28;20034;-37
2023/09/24 14:47:59;;;;;;;10.23;2.90;;;;;;;;;;4949747;28;20060;-37
2023/09/24 14:50:27;;;;;;;5.95;1.90;;;;;;;;;;4965109;28;20053;-37
2023/09/24 14:52:54;;;;;;;12.60;2.72;;;;;;;;;;4932033;28;20054;-37
2023/09/24 14:55:23;;;;;;;9.95;2.80;;;;;;;;;;4938753;28;20250;-37
2023/09/24 14:57:50;;;;;;;11.13;2.50;;;;;;;;;;4913248;28;20049;-37
2023/09/24 15:00:18;;;;;;;9.02;2.20;;;;;;;;;;4941876;28;20046;-37
2023/09/24 15:02:46;;;;;;;11.48;3.00;;;;;;;;;;4929265;28;20118;-37
2023/09/24 15:05:16;;;;;;;12.40;3.20;;;;;;;;;;4935933;28;20042;-36
2023/09/24 15:07:50;;;;;;;9.18;2.58;;;;;;;;;;4920820;28;20482;-37
2023/09/24 15:10:19;;;;;;;10.30;2.10;;;;;;;;;;4904919;28;20531;-37
2023/09/24 15:12:54;;;;;;;12.43;2.33;;;;;;;;;;4913413;28;20111;-37
2023/09/24 15:15:22;;;;;;;14.18;2.20;;;;;;;;;;4905512;28;20043;-37
2023/09/24 15:17:50;;;;;;;15.20;2.55;;;;;;;;;;4908762;28;20047;-37
2023/09/24 15:20:21;;;;;;;12.60;2.38;;;;;;;;;;4929217;28;20050;-37
2023/09/24 15:22:49;;;;;;;14.07;2.70;;;;;;;;;;4914154;28;20043;-37
2023/09/24 15:25:17;;;;;;;11.20;1.75;;;;;;;;;;4919656;28;20039;-37
2023/09/24 15:27:45;;;;;;;10.75;2.28;;;;;;;;;;4916833;28;20414;-37
2023/09/24 15:30:34;;;;;;;9.38;2.03;;;;;;;;;;4914151;28;20413;-37
2023/09/24 15:33:22;;;;;;;9.38;2.05;;;;;;;;;;4916622;28;20050;-37
2023/09/24 15:35:56;;;;;;;8.03;2.07;;;;;;;;;;4870311;28;20083;-37
2023/09/24 15:38:24;;;;;;;11.15;2.42;;;;;;;;;;4240072;28;10000453;-38
2023/09/24 15:40:53;;;;;;;8.57;2.17;;;;;;;;;;4896241;28;20048;-38